createdAt,value
2019-03-10T00:01:11.935Z,11.20
2019-03-10T00:03:39.447Z,11.10
2019-03-10T00:06:06.822Z,11.12
2019-03-10T00:08:34.370Z,11.13
2019-03-10T00:11:01.770Z,11.07
2019-03-10T00:13:29.195Z,11.02
2019-03-10T00:15:56.630Z,10.97
2019-03-10T00:18:24.040Z,11.01
2019-03-10T00:20:51.440Z,11.02
2019-03-10T00:23:18.978Z,11.02
2019-03-10T00:25:46.438Z,11.00
2019-03-10T00:28:13.836Z,10.98
2019-03-10T00:30:41.234Z,11.02
2019-03-10T00:33:08.656Z,11.06
2019-03-10T00:35:36.059Z,11.09
2019-03-10T00:38:03.508Z,11.15
2019-03-10T00:40:37.346Z,11.20
2019-03-10T00:43:16.733Z,11.28
2019-03-10T00:45:50.992Z,11.40
2019-03-10T00:48:20.406Z,11.45
2019-03-10T00:50:59.704Z,11.33
2019-03-10T00:53:27.117Z,11.21
2019-03-10T00:55:54.529Z,11.16
2019-03-10T00:58:21.924Z,11.19
2019-03-10T01:00:49.331Z,11.30
2019-03-10T01:03:16.772Z,11.28
2019-03-10T01:05:44.179Z,11.25
2019-03-10T01:08:11.624Z,11.24
2019-03-10T01:10:39.347Z,11.24
2019-03-10T01:13:06.763Z,11.32
2019-03-10T01:15:34.153Z,11.36
2019-03-10T01:18:01.638Z,11.37
2019-03-10T01:20:29.026Z,11.38
2019-03-10T01:22:56.591Z,11.38
2019-03-10T01:25:23.990Z,11.34
2019-03-10T01:27:51.395Z,11.37
2019-03-10T01:30:18.853Z,11.40
2019-03-10T01:32:58.793Z,11.46
2019-03-10T01:35:26.214Z,11.60
2019-03-10T01:37:53.640Z,11.72
2019-03-10T01:40:21.035Z,11.80
2019-03-10T01:42:48.451Z,11.86
2019-03-10T01:45:15.889Z,11.97
2019-03-10T01:47:43.276Z,12.01
2019-03-10T01:50:10.684Z,12.07
2019-03-10T01:52:38.094Z,12.05
2019-03-10T01:55:05.553Z,12.04
2019-03-10T01:57:32.958Z,12.05
2019-03-10T02:00:00.374Z,12.07
2019-03-10T02:02:28.270Z,12.01
2019-03-10T02:04:55.664Z,11.90
2019-03-10T02:07:23.080Z,11.83
2019-03-10T02:09:50.482Z,11.74
2019-03-10T02:12:17.885Z,11.68
2019-03-10T02:14:45.327Z,11.70
2019-03-10T02:17:12.715Z,11.70
2019-03-10T02:19:40.189Z,11.71
2019-03-10T02:22:07.923Z,11.69
2019-03-10T02:24:35.519Z,11.67
2019-03-10T02:27:02.922Z,11.67
2019-03-10T02:29:30.361Z,11.69
2019-03-10T02:31:57.779Z,11.71
2019-03-10T02:34:25.163Z,11.75
2019-03-10T02:36:52.567Z,11.81
2019-03-10T02:39:19.985Z,11.85
2019-03-10T02:41:47.381Z,11.87
2019-03-10T02:44:14.816Z,11.89
2019-03-10T02:46:42.225Z,11.90
2019-03-10T02:49:09.633Z,11.90
2019-03-10T02:51:37.167Z,11.94
2019-03-10T02:54:04.618Z,11.99
2019-03-10T02:56:32.052Z,12.12
2019-03-10T02:58:59.394Z,12.26
2019-03-10T03:01:26.972Z,12.40
2019-03-10T03:03:54.459Z,12.50
2019-03-10T03:06:22.192Z,12.62
2019-03-10T03:08:49.622Z,12.69
2019-03-10T03:11:17.076Z,12.75
2019-03-10T03:13:44.475Z,12.82
2019-03-10T03:16:11.906Z,12.84
2019-03-10T03:18:39.364Z,12.86
2019-03-10T03:21:06.826Z,12.88
2019-03-10T03:23:34.282Z,12.92
2019-03-10T03:26:01.669Z,12.97
2019-03-10T03:28:29.063Z,13.00
2019-03-10T03:30:56.498Z,13.03
2019-03-10T03:33:23.912Z,13.06
2019-03-10T03:35:52.278Z,13.10
2019-03-10T03:38:23.112Z,13.15
2019-03-10T03:40:52.159Z,13.16
2019-03-10T03:43:19.740Z,13.16
2019-03-10T03:45:47.161Z,13.13
2019-03-10T03:48:14.952Z,13.12
2019-03-10T03:50:42.460Z,13.12
2019-03-10T03:53:09.857Z,13.11
2019-03-10T03:55:37.376Z,13.16
2019-03-10T03:58:04.776Z,13.20
2019-03-10T04:00:32.349Z,13.23
2019-03-10T04:02:59.947Z,13.25
2019-03-10T04:05:27.340Z,13.30
2019-03-10T04:07:54.759Z,13.34
2019-03-10T04:10:22.193Z,13.37
2019-03-10T04:12:49.610Z,13.39
2019-03-10T04:15:17.061Z,13.43
2019-03-10T04:17:44.509Z,13.48
2019-03-10T04:20:11.947Z,13.55
2019-03-10T04:22:39.404Z,13.62
2019-03-10T04:25:06.807Z,13.68
2019-03-10T04:27:34.232Z,13.71
2019-03-10T04:30:01.705Z,13.71
2019-03-10T04:32:29.047Z,13.72
2019-03-10T04:34:56.484Z,13.72
2019-03-10T04:37:23.859Z,13.76
2019-03-10T04:39:51.399Z,13.78
2019-03-10T04:42:18.880Z,13.82
2019-03-10T04:44:46.289Z,13.84
2019-03-10T04:47:13.758Z,13.85
2019-03-10T04:49:41.163Z,13.89
2019-03-10T04:52:08.591Z,13.94
2019-03-10T04:54:38.511Z,13.97
2019-03-10T04:57:06.062Z,13.99
2019-03-10T04:59:33.452Z,14.04
2019-03-10T05:02:00.880Z,14.03
2019-03-10T05:04:28.284Z,14.07
2019-03-10T05:06:55.666Z,14.11
2019-03-10T05:09:23.062Z,14.13
2019-03-10T05:11:50.466Z,14.14
2019-03-10T05:14:17.871Z,14.17
2019-03-10T05:16:45.271Z,14.16
2019-03-10T05:19:12.864Z,14.18
2019-03-10T05:21:40.254Z,14.18
2019-03-10T05:24:07.685Z,14.25
2019-03-10T05:26:35.095Z,14.24
2019-03-10T05:29:02.501Z,14.25
2019-03-10T05:31:29.947Z,14.24
2019-03-10T05:33:57.360Z,14.27
2019-03-10T05:36:24.757Z,14.30
2019-03-10T05:38:52.146Z,14.32
2019-03-10T05:41:19.567Z,14.35
2019-03-10T05:43:46.987Z,14.35
2019-03-10T05:46:14.385Z,14.38
2019-03-10T05:48:41.850Z,14.40
2019-03-10T05:51:09.240Z,14.40
2019-03-10T05:53:36.647Z,14.39
2019-03-10T05:56:04.049Z,14.38
2019-03-10T05:58:31.439Z,14.38
2019-03-10T06:00:58.857Z,14.35
2019-03-10T06:03:26.305Z,14.33
2019-03-10T06:05:53.727Z,14.32
2019-03-10T06:08:21.147Z,14.32
2019-03-10T06:10:48.629Z,14.33
2019-03-10T06:13:16.039Z,14.33
2019-03-10T06:15:43.448Z,14.30
2019-03-10T06:18:13.888Z,14.33
2019-03-10T06:20:38.365Z,14.34
2019-03-10T06:23:05.838Z,14.33
2019-03-10T06:25:35.046Z,14.35
2019-03-10T06:28:00.667Z,14.38
2019-03-10T06:30:28.080Z,14.37
2019-03-10T06:32:55.496Z,14.39
2019-03-10T06:35:22.953Z,14.41
2019-03-10T06:37:50.426Z,14.40
2019-03-10T06:40:17.861Z,14.42
2019-03-10T06:42:45.293Z,14.44
2019-03-10T06:45:13.352Z,14.45
2019-03-10T06:47:40.763Z,14.48
2019-03-10T06:50:08.169Z,14.51
2019-03-10T06:52:35.579Z,14.54
2019-03-10T06:55:02.987Z,14.62
2019-03-10T06:57:30.956Z,14.63
2019-03-10T06:59:58.341Z,14.72
2019-03-10T07:02:26.596Z,14.80
2019-03-10T07:04:54.032Z,14.85
2019-03-10T07:07:21.640Z,14.90
2019-03-10T07:09:49.051Z,14.93
2019-03-10T07:12:16.451Z,14.99
2019-03-10T07:14:43.859Z,15.01
2019-03-10T07:17:11.260Z,15.02
2019-03-10T07:19:38.694Z,15.02
2019-03-10T07:22:07.906Z,15.00
2019-03-10T07:24:35.317Z,15.04
2019-03-10T07:27:02.742Z,15.06
2019-03-10T07:29:30.159Z,15.04
2019-03-10T07:31:58.332Z,15.08
2019-03-10T07:34:31.309Z,15.11
2019-03-10T07:37:04.498Z,15.14
2019-03-10T07:39:32.071Z,15.18
2019-03-10T07:42:10.218Z,15.25
2019-03-10T07:44:37.965Z,15.27
2019-03-10T07:50:00.337Z,15.51
2019-03-10T07:52:33.281Z,15.46
2019-03-10T07:55:00.696Z,15.47
2019-03-10T07:57:35.659Z,15.50
2019-03-10T08:00:08.665Z,15.49
2019-03-10T08:02:48.922Z,15.50
2019-03-10T08:05:17.114Z,15.50
2019-03-10T08:07:46.165Z,15.51
2019-03-10T08:10:33.060Z,15.52
2019-03-10T08:13:12.314Z,15.57
2019-03-10T08:15:58.474Z,15.63
2019-03-10T08:18:31.440Z,15.66
2019-03-10T08:21:03.422Z,15.67
2019-03-10T08:26:27.518Z,15.97
2019-03-10T08:28:57.818Z,15.92
2019-03-10T08:31:27.002Z,15.90
2019-03-10T08:34:04.337Z,15.91
2019-03-10T08:36:34.130Z,15.96
2019-03-10T08:39:05.411Z,15.98
2019-03-10T08:41:34.167Z,15.99
2019-03-10T08:44:02.387Z,16.01
2019-03-10T08:46:40.530Z,15.98
2019-03-10T08:49:08.078Z,15.93
2019-03-10T08:51:39.854Z,15.88
2019-03-10T08:54:10.826Z,15.83
2019-03-10T08:56:50.945Z,15.81
2019-03-10T08:59:19.979Z,15.81
2019-03-10T09:01:53.024Z,15.82
2019-03-10T09:04:25.168Z,15.80
2019-03-10T09:07:08.428Z,15.78
2019-03-10T09:09:39.870Z,15.75
2019-03-10T09:12:12.930Z,15.73
2019-03-10T09:14:43.308Z,15.70
2019-03-10T09:17:16.540Z,15.69
2019-03-10T09:19:44.399Z,15.68
2019-03-10T09:22:17.328Z,15.67
2019-03-10T09:24:50.392Z,15.70
2019-03-10T09:27:28.948Z,15.71
2019-03-10T09:30:11.552Z,15.70
2019-03-10T09:32:39.944Z,15.67
2019-03-10T09:35:08.209Z,15.65
2019-03-10T09:40:32.650Z,15.90
2019-03-10T09:43:15.921Z,15.85
2019-03-10T09:45:45.913Z,15.79
2019-03-10T09:48:27.229Z,15.80
2019-03-10T09:50:57.082Z,15.82
2019-03-10T09:53:30.225Z,15.82
2019-03-10T09:56:02.553Z,15.92
2019-03-10T09:58:39.871Z,16.09
2019-03-10T10:01:21.157Z,16.22
2019-03-10T10:03:56.989Z,16.26
2019-03-10T10:06:25.174Z,16.28
2019-03-10T10:09:07.639Z,16.35
2019-03-10T10:11:37.099Z,16.40
2019-03-10T10:14:06.863Z,16.44
2019-03-10T10:16:50.101Z,16.45
2019-03-10T10:19:25.982Z,16.42
2019-03-10T10:21:53.470Z,16.33
2019-03-10T10:24:20.889Z,16.26
2019-03-10T10:26:48.295Z,16.22
2019-03-10T10:29:18.684Z,16.21
2019-03-10T10:31:50.702Z,16.18
2019-03-10T10:34:19.072Z,16.11
2019-03-10T10:36:47.415Z,16.09
2019-03-10T10:39:15.713Z,16.09
2019-03-10T10:41:48.779Z,16.12
2019-03-10T10:44:18.171Z,16.22
2019-03-10T10:46:48.062Z,16.36
2019-03-10T10:49:15.875Z,16.66
2019-03-10T10:51:55.073Z,16.97
2019-03-10T10:54:28.022Z,17.34
2019-03-10T10:56:58.978Z,17.49
2019-03-10T10:59:36.360Z,17.48
2019-03-10T11:02:17.582Z,17.50
2019-03-10T11:04:45.963Z,17.72
2019-03-10T11:07:15.202Z,18.26
2019-03-10T11:09:47.019Z,18.64
2019-03-10T11:15:10.321Z,18.51
2019-03-10T11:17:41.109Z,18.64
2019-03-10T11:20:11.225Z,18.70
2019-03-10T11:22:44.182Z,18.60
2019-03-10T11:25:12.993Z,18.24
2019-03-10T11:27:55.364Z,17.80
2019-03-10T11:30:38.565Z,17.47
2019-03-10T11:33:22.780Z,17.42
2019-03-10T11:35:53.600Z,17.28
2019-03-10T11:38:22.029Z,17.31
2019-03-10T11:40:52.266Z,17.29
2019-03-10T11:43:23.516Z,17.17
2019-03-10T11:45:54.525Z,17.07
2019-03-10T11:48:27.582Z,17.03
2019-03-10T11:50:55.026Z,16.94
2019-03-10T11:53:25.711Z,16.85
2019-03-10T11:56:01.209Z,16.64
2019-03-10T11:58:30.858Z,16.49
2019-03-10T12:00:57.842Z,16.43
2019-03-10T12:06:22.591Z,16.82
2019-03-10T12:08:52.127Z,16.75
2019-03-10T12:11:19.575Z,16.51
2019-03-10T12:13:46.972Z,16.32
2019-03-10T12:16:14.513Z,16.16
2019-03-10T12:18:41.925Z,15.99
2019-03-10T12:21:09.706Z,15.96
2019-03-10T12:23:37.131Z,15.86
2019-03-10T12:26:04.539Z,15.83
2019-03-10T12:28:31.956Z,15.71
2019-03-10T12:30:59.366Z,15.69
2019-03-10T12:33:26.763Z,15.59
2019-03-10T12:35:54.163Z,15.62
2019-03-10T12:38:21.573Z,15.63
2019-03-10T12:40:48.989Z,15.68
2019-03-10T12:43:16.474Z,15.72
2019-03-10T12:45:44.086Z,15.81
2019-03-10T12:48:11.580Z,15.88
2019-03-10T12:50:39.041Z,16.02
2019-03-10T12:53:06.464Z,16.12
2019-03-10T12:55:33.963Z,16.22
2019-03-10T12:58:01.356Z,17.29
2019-03-10T13:00:28.780Z,18.61
2019-03-10T13:02:56.168Z,18.65
2019-03-10T13:05:23.607Z,18.11
2019-03-10T13:07:51.064Z,17.95
2019-03-10T13:10:18.489Z,17.87
2019-03-10T13:12:46.046Z,17.75
2019-03-10T13:15:13.530Z,17.93
2019-03-10T13:17:40.938Z,18.57
2019-03-10T13:20:09.044Z,18.94
2019-03-10T13:22:36.460Z,18.88
2019-03-10T13:25:03.932Z,19.09
2019-03-10T13:27:30.908Z,19.59
2019-03-10T13:29:57.863Z,20.09
2019-03-10T13:32:25.288Z,20.98
2019-03-10T13:34:53.278Z,21.20
2019-03-10T13:37:20.669Z,21.09
2019-03-10T13:39:47.756Z,21.63
2019-03-10T13:42:14.698Z,21.55
2019-03-10T13:44:41.661Z,20.60
2019-03-10T13:47:08.599Z,20.20
2019-03-10T13:49:36.474Z,19.80
2019-03-10T13:52:03.423Z,19.23
2019-03-10T13:54:30.435Z,18.85
2019-03-10T13:56:58.302Z,18.45
2019-03-10T13:59:24.406Z,17.96
2019-03-10T14:01:51.408Z,17.68
2019-03-10T14:04:18.367Z,17.47
2019-03-10T14:06:45.332Z,17.38
2019-03-10T14:09:12.372Z,17.20
2019-03-10T14:11:39.823Z,17.09
2019-03-10T14:14:06.827Z,16.96
2019-03-10T14:16:33.868Z,16.89
2019-03-10T14:19:00.845Z,16.64
2019-03-10T14:21:27.955Z,16.41
2019-03-10T14:23:54.952Z,16.27
2019-03-10T14:26:22.208Z,16.09
2019-03-10T14:28:49.536Z,15.95
2019-03-10T14:31:16.986Z,15.83
2019-03-10T14:33:44.632Z,15.74
2019-03-10T14:36:12.056Z,15.48
2019-03-10T14:38:39.492Z,15.21
2019-03-10T14:41:07.042Z,15.01
2019-03-10T14:43:34.434Z,14.93
2019-03-10T14:46:02.355Z,14.82
2019-03-10T14:48:29.791Z,14.64
2019-03-10T14:50:56.754Z,14.64
2019-03-10T14:53:24.151Z,14.58
2019-03-10T14:55:51.667Z,14.58
2019-03-10T14:58:19.076Z,14.71
2019-03-10T15:00:46.525Z,14.75
2019-03-10T15:03:14.015Z,14.84
2019-03-10T15:05:41.410Z,15.01
2019-03-10T15:08:08.834Z,15.17
2019-03-10T15:10:36.253Z,15.39
2019-03-10T15:13:03.647Z,15.85
2019-03-10T15:15:31.073Z,17.32
2019-03-10T15:17:58.459Z,18.34
2019-03-10T15:20:26.036Z,19.34
2019-03-10T15:22:53.600Z,19.95
2019-03-10T15:25:22.090Z,20.18
2019-03-10T15:27:49.559Z,20.30
2019-03-10T15:30:18.082Z,20.24
2019-03-10T15:32:45.816Z,20.19
2019-03-10T15:35:14.589Z,20.35
2019-03-10T15:37:42.056Z,20.45
2019-03-10T15:40:13.483Z,20.47
2019-03-10T15:42:40.973Z,20.41
2019-03-10T15:45:09.377Z,20.63
2019-03-10T15:47:36.770Z,20.93
2019-03-10T15:50:19.924Z,21.18
2019-03-10T15:52:47.510Z,21.25
2019-03-10T15:55:14.966Z,20.65
2019-03-10T15:57:50.225Z,20.40
2019-03-10T16:00:12.518Z,20.85
2019-03-10T16:02:39.941Z,21.12
2019-03-10T16:05:07.442Z,21.48
2019-03-10T16:07:34.840Z,21.90
2019-03-10T16:10:02.258Z,22.09
2019-03-10T16:12:29.652Z,21.87
2019-03-10T16:14:57.087Z,21.57
2019-03-10T16:17:24.537Z,21.82
2019-03-10T16:19:52.011Z,22.19
2019-03-10T16:22:19.390Z,22.66
2019-03-10T16:24:46.811Z,22.82
2019-03-10T16:27:14.211Z,22.91
2019-03-10T16:29:41.766Z,23.02
2019-03-10T16:32:09.170Z,22.24
2019-03-10T16:34:36.590Z,22.65
2019-03-10T16:37:04.096Z,20.97
2019-03-10T16:39:32.235Z,21.92
2019-03-10T16:41:59.636Z,19.80
2019-03-10T16:44:27.061Z,18.99
2019-03-10T16:46:54.463Z,18.84
2019-03-10T16:49:21.879Z,21.47
2019-03-10T16:51:49.279Z,22.26
2019-03-10T16:54:16.699Z,21.49
2019-03-10T16:56:44.157Z,20.89
2019-03-10T16:59:11.609Z,21.23
2019-03-10T17:01:39.096Z,22.44
2019-03-10T17:04:06.492Z,21.03
2019-03-10T17:06:33.907Z,18.88
2019-03-10T17:09:01.540Z,19.45
2019-03-10T17:11:29.106Z,18.21
2019-03-10T17:13:56.482Z,17.44
2019-03-10T17:16:23.920Z,16.75
2019-03-10T17:18:51.563Z,16.32
2019-03-10T17:21:18.959Z,16.08
2019-03-10T17:23:46.412Z,15.82
2019-03-10T17:26:13.869Z,15.63
2019-03-10T17:28:41.373Z,15.48
2019-03-10T17:31:08.956Z,15.37
2019-03-10T17:33:36.424Z,15.27
2019-03-10T17:36:03.891Z,15.20
2019-03-10T17:38:31.298Z,15.09
2019-03-10T17:40:58.736Z,15.03
2019-03-10T17:43:26.151Z,14.98
2019-03-10T17:45:53.599Z,14.89
2019-03-10T17:48:21.060Z,14.87
2019-03-10T17:50:48.468Z,14.79
2019-03-10T17:53:16.074Z,14.75
2019-03-10T17:55:43.532Z,14.72
2019-03-10T17:58:11.001Z,14.68
2019-03-10T18:00:38.442Z,14.65
2019-03-10T18:03:05.845Z,14.64
2019-03-10T18:05:33.600Z,14.59
2019-03-10T18:08:01.058Z,14.59
2019-03-10T18:10:28.532Z,14.58
2019-03-10T18:12:56.151Z,14.56
2019-03-10T18:15:23.574Z,14.59
2019-03-10T18:17:51.012Z,14.59
2019-03-10T18:20:19.515Z,14.63
2019-03-10T18:22:46.936Z,14.61
2019-03-10T18:25:14.323Z,14.59
2019-03-10T18:27:41.760Z,14.56
2019-03-10T18:30:18.667Z,14.52
2019-03-10T18:32:46.134Z,14.47
2019-03-10T18:35:13.529Z,14.41
2019-03-10T18:37:41.015Z,14.38
2019-03-10T18:40:10.948Z,14.42
2019-03-10T18:42:38.467Z,14.51
2019-03-10T18:45:05.884Z,14.52
2019-03-10T18:47:33.275Z,14.40
2019-03-10T18:50:00.694Z,14.27
2019-03-10T18:52:28.121Z,14.14
2019-03-10T18:54:55.549Z,13.95
2019-03-10T18:57:22.951Z,13.87
2019-03-10T18:59:50.339Z,13.74
2019-03-10T19:02:17.767Z,13.62
2019-03-10T19:04:45.208Z,13.47
2019-03-10T19:07:12.625Z,13.38
2019-03-10T19:09:40.032Z,13.33
2019-03-10T19:12:07.465Z,13.36
2019-03-10T19:14:34.886Z,13.43
2019-03-10T19:17:02.316Z,13.43
2019-03-10T19:19:31.916Z,13.45
2019-03-10T19:21:57.233Z,13.47
2019-03-10T19:24:24.627Z,13.49
2019-03-10T19:26:52.043Z,13.43
2019-03-10T19:29:19.474Z,13.31
2019-03-10T19:31:46.892Z,13.25
2019-03-10T19:34:14.386Z,13.19
2019-03-10T19:36:41.801Z,13.17
2019-03-10T19:39:09.202Z,13.11
2019-03-10T19:41:36.741Z,13.12
2019-03-10T19:44:04.187Z,13.15
2019-03-10T19:46:31.600Z,13.12
2019-03-10T19:48:58.991Z,13.10
2019-03-10T19:51:26.421Z,13.04
2019-03-10T19:53:53.854Z,13.05
2019-03-10T19:56:21.271Z,13.02
2019-03-10T19:58:48.678Z,13.02
2019-03-10T20:01:16.768Z,13.01
2019-03-10T20:03:44.175Z,13.01
2019-03-10T20:06:11.566Z,13.03
2019-03-10T20:08:38.966Z,13.01
2019-03-10T20:11:06.397Z,12.94
2019-03-10T20:13:33.848Z,12.92
2019-03-10T20:16:01.263Z,12.88
2019-03-10T20:18:28.707Z,12.82
2019-03-10T20:20:56.491Z,12.77
2019-03-10T20:23:23.915Z,12.80
2019-03-10T20:25:51.327Z,12.75
2019-03-10T20:28:18.738Z,12.75
2019-03-10T20:30:46.143Z,12.77
2019-03-10T20:33:13.905Z,12.80
2019-03-10T20:35:41.371Z,12.74
2019-03-10T20:38:08.766Z,12.65
2019-03-10T20:40:36.211Z,12.59
2019-03-10T20:43:03.599Z,12.64
2019-03-10T20:45:31.220Z,12.71
2019-03-10T20:47:58.650Z,12.61
2019-03-10T20:50:26.116Z,12.48
2019-03-10T20:52:53.517Z,12.39
2019-03-10T20:55:21.028Z,12.36
2019-03-10T20:57:48.485Z,12.34
2019-03-10T21:00:18.705Z,12.35
2019-03-10T21:02:46.094Z,12.44
2019-03-10T21:05:13.640Z,12.48
2019-03-10T21:07:41.054Z,12.53
2019-03-10T21:10:10.481Z,12.57
2019-03-10T21:12:41.842Z,12.56
2019-03-10T21:15:06.120Z,12.54
2019-03-10T21:17:33.509Z,12.50
2019-03-10T21:20:01.037Z,12.45
2019-03-10T21:22:28.569Z,12.48
2019-03-10T21:24:55.964Z,12.19
2019-03-10T21:27:23.399Z,11.95
2019-03-10T21:29:50.381Z,11.60
2019-03-10T21:32:17.754Z,11.39
2019-03-10T21:34:45.593Z,11.28
2019-03-10T21:37:13.893Z,11.31
2019-03-10T21:39:41.302Z,11.37
2019-03-10T21:42:08.713Z,11.38
2019-03-10T21:44:36.129Z,11.30
2019-03-10T21:47:03.571Z,11.22
2019-03-10T21:49:31.025Z,11.23
2019-03-10T21:51:58.430Z,11.43
2019-03-10T21:54:25.850Z,11.46
2019-03-10T21:56:53.308Z,11.56
2019-03-10T21:59:20.702Z,11.58
2019-03-10T22:01:48.107Z,11.59
2019-03-10T22:04:15.593Z,11.70
2019-03-10T22:06:43.814Z,11.80
2019-03-10T22:09:11.241Z,11.80
2019-03-10T22:11:38.662Z,11.84
2019-03-10T22:14:06.111Z,11.87
2019-03-10T22:16:33.545Z,11.88
2019-03-10T22:19:00.934Z,11.88
2019-03-10T22:21:28.365Z,11.90
2019-03-10T22:23:59.571Z,11.81
2019-03-10T22:26:23.158Z,11.81
2019-03-10T22:28:50.639Z,11.85
2019-03-10T22:31:18.100Z,11.89
2019-03-10T22:33:45.582Z,12.02
2019-03-10T22:36:12.959Z,12.09
2019-03-10T22:38:40.480Z,12.04
2019-03-10T22:41:07.873Z,12.03
2019-03-10T22:43:35.283Z,12.05
2019-03-10T22:46:02.680Z,12.05
2019-03-10T22:48:30.073Z,11.89
2019-03-10T22:50:57.571Z,11.56
2019-03-10T22:53:25.019Z,11.06
2019-03-10T22:55:52.443Z,10.71
2019-03-10T22:58:19.846Z,10.67
2019-03-10T23:00:48.787Z,10.67
2019-03-10T23:03:16.176Z,10.61
2019-03-10T23:05:43.582Z,10.48
2019-03-10T23:08:10.982Z,10.61
2019-03-10T23:10:38.393Z,10.76
2019-03-10T23:13:05.833Z,10.57
2019-03-10T23:15:33.329Z,10.31
2019-03-10T23:18:00.726Z,10.14
2019-03-10T23:20:28.142Z,10.23
2019-03-10T23:22:55.540Z,10.43
2019-03-10T23:25:22.966Z,10.64
2019-03-10T23:27:50.374Z,10.60
2019-03-10T23:30:17.797Z,10.48
2019-03-10T23:32:45.576Z,10.50
2019-03-10T23:35:13.514Z,10.52
2019-03-10T23:37:40.961Z,10.58
2019-03-10T23:40:10.912Z,10.56
2019-03-10T23:42:38.361Z,10.63
2019-03-10T23:45:05.806Z,10.77
2019-03-10T23:47:35.086Z,10.85
2019-03-10T23:50:00.727Z,10.95
2019-03-10T23:52:28.119Z,11.01
2019-03-10T23:54:55.553Z,11.04
2019-03-10T23:57:22.954Z,11.04
2019-03-10T23:59:50.388Z,11.00
